Time;durP1;ratioP1;P1;durP2;ratioP2;P2;SDS_P1;SDS_P2;PMS_P1;PMS_P2;Temp;Humidity;BMP_temperature;BMP_pressure;BME280_temperature;BME280_humidity;BME280_pressure;Samples;Min_cycle;Max_cycle;Signal;HPM_P1;HPM_P2
2021/10/15 00:00:16;;;;;;;12.00;6.82;;;13.70;99.90;;;;;;4931897;29;20115;-73
2021/10/15 00:02:42;;;;;;;10.95;6.40;;;13.70;99.90;;;;;;4917754;29;20088;-74
2021/10/15 00:05:08;;;;;;;10.45;6.82;;;13.70;99.90;;;;;;4932518;29;20101;-74
2021/10/15 00:07:33;;;;;;;7.50;6.35;;;13.70;99.90;;;;;;4915928;29;20027;-73
2021/10/15 00:09:59;;;;;;;8.10;5.85;;;13.70;99.90;;;;;;4918177;29;20036;-74
2021/10/15 00:12:24;;;;;;;9.43;5.72;;;13.60;99.90;;;;;;4917357;29;20045;-72
2021/10/15 00:14:50;;;;;;;10.05;6.65;;;13.60;99.90;;;;;;4915985;29;20436;-73
2021/10/15 00:17:17;;;;;;;10.05;6.38;;;13.60;99.90;;;;;;4917913;29;20028;-73
2021/10/15 00:19:42;;;;;;;8.93;7.03;;;13.60;99.90;;;;;;4932227;29;20080;-73
2021/10/15 00:22:08;;;;;;;8.00;6.07;;;13.60;99.90;;;;;;4915739;29;20024;-73
2021/10/15 00:24:33;;;;;;;6.53;5.63;;;13.60;99.90;;;;;;4917352;29;20028;-73
2021/10/15 00:26:59;;;;;;;6.85;6.13;;;13.60;99.90;;;;;;4917608;29;20469;-73
2021/10/15 00:29:24;;;;;;;9.57;6.38;;;13.60;99.90;;;;;;4915085;29;20064;-73
2021/10/15 00:31:50;;;;;;;7.90;6.22;;;13.60;99.90;;;;;;4932137;29;20099;-73
2021/10/15 00:34:15;;;;;;;10.18;6.65;;;13.60;99.90;;;;;;4915846;29;20028;-73
2021/10/15 00:36:41;;;;;;;8.60;6.72;;;13.60;99.90;;;;;;4931963;29;20520;-73
2021/10/15 00:39:07;;;;;;;8.55;5.95;;;13.60;99.90;;;;;;4917426;29;20512;-72
2021/10/15 00:41:32;;;;;;;7.75;6.15;;;13.60;99.90;;;;;;4916564;29;20028;-74
2021/10/15 00:44:11;;;;;;;9.50;6.15;;;13.60;99.90;;;;;;4917266;29;20380;-73
2021/10/15 00:46:38;;;;;;;7.57;6.07;;;13.60;99.90;;;;;;4916942;29;20031;-73
2021/10/15 00:49:12;;;;;;;7.70;6.50;;;13.60;99.90;;;;;;4916612;29;20036;-73
2021/10/15 00:51:41;;;;;;;7.20;6.10;;;13.60;99.90;;;;;;4931413;29;20133;-72
2021/10/15 00:54:06;;;;;;;6.60;5.40;;;13.60;99.90;;;;;;4916995;29;20031;-73
2021/10/15 00:56:32;;;;;;;6.22;5.18;;;13.60;99.90;;;;;;4916291;29;20071;-73
2021/10/15 00:59:02;;;;;;;8.68;5.88;;;13.60;99.90;;;;;;4916828;29;20103;-73
2021/10/15 01:01:28;;;;;;;7.30;6.22;;;13.60;99.90;;;;;;4916559;29;20056;-74
2021/10/15 01:03:53;;;;;;;7.57;6.07;;;13.60;99.90;;;;;;4916428;29;20496;-74
2021/10/15 01:06:19;;;;;;;6.53;5.75;;;13.60;99.90;;;;;;4915688;29;20036;-75
2021/10/15 01:08:46;;;;;;;8.25;5.20;;;13.60;99.90;;;;;;4916635;29;20028;-74
2021/10/15 01:11:16;;;;;;;7.60;6.30;;;13.60;99.90;;;;;;4916115;29;20464;-73
2021/10/15 01:13:42;;;;;;;7.22;6.35;;;13.60;99.90;;;;;;4915096;29;20036;-72
2021/10/15 01:16:11;;;;;;;7.80;6.10;;;13.60;99.90;;;;;;4931344;29;20031;-73
2021/10/15 01:18:38;;;;;;;10.70;6.75;;;13.60;99.90;;;;;;4930115;29;20036;-73
2021/10/15 01:21:09;;;;;;;7.72;6.28;;;13.60;99.90;;;;;;4916669;29;20099;-73
2021/10/15 01:23:35;;;;;;;7.03;5.72;;;13.60;99.90;;;;;;4914313;29;20020;-73
2021/10/15 01:26:01;;;;;;;7.10;6.40;;;13.60;99.90;;;;;;4916578;29;20032;-73
2021/10/15 01:28:29;;;;;;;7.65;5.78;;;13.60;99.90;;;;;;4914890;29;20088;-72
2021/10/15 01:30:55;;;;;;;7.47;6.28;;;13.60;99.90;;;;;;4916130;29;20098;-73
2021/10/15 01:33:21;;;;;;;9.35;6.53;;;13.60;99.90;;;;;;4916673;29;20076;-72
2021/10/15 01:35:47;;;;;;;11.82;7.07;;;13.60;99.90;;;;;;4916325;29;20032;-73
2021/10/15 01:38:13;;;;;;;6.22;5.50;;;13.60;99.90;;;;;;4930197;29;20362;-72
2021/10/15 01:40:39;;;;;;;7.28;6.00;;;13.70;99.90;;;;;;4915945;29;20513;-72
2021/10/15 01:43:05;;;;;;;6.70;5.75;;;13.60;99.90;;;;;;4915976;29;20126;-72
2021/10/15 01:45:32;;;;;;;9.63;6.90;;;13.60;99.90;;;;;;4915427;29;20166;-72
2021/10/15 01:47:59;;;;;;;9.52;7.00;;;13.70;99.90;;;;;;4916530;29;20016;-74
2021/10/15 01:50:26;;;;;;;9.25;7.20;;;13.60;99.90;;;;;;4915933;29;20185;-72
2021/10/15 01:52:52;;;;;;;9.50;7.07;;;13.60;99.90;;;;;;4915559;29;20016;-72
2021/10/15 01:55:19;;;;;;;8.38;6.88;;;13.60;99.90;;;;;;4916036;29;20029;-72
2021/10/15 01:57:44;;;;;;;9.43;7.85;;;13.60;99.90;;;;;;4915824;29;20508;-72
2021/10/15 02:00:11;;;;;;;9.07;6.95;;;13.60;99.90;;;;;;4915336;29;20040;-73
2021/10/15 02:02:37;;;;;;;11.07;7.20;;;13.60;99.90;;;;;;4912572;29;20445;-75
2021/10/15 02:05:05;;;;;;;10.10;7.60;;;13.60;99.90;;;;;;4914683;29;20169;-75
2021/10/15 02:07:30;;;;;;;8.00;7.20;;;13.60;99.90;;;;;;4929881;29;20070;-73
2021/10/15 02:09:56;;;;;;;11.30;7.00;;;13.60;99.90;;;;;;4915894;29;20059;-73
2021/10/15 02:12:21;;;;;;;10.20;6.88;;;13.60;99.90;;;;;;4914629;29;20056;-76
2021/10/15 02:14:47;;;;;;;9.13;7.13;;;13.60;99.90;;;;;;4915037;29;20024;-73
2021/10/15 02:17:12;;;;;;;9.02;6.97;;;13.60;99.90;;;;;;4914715;29;20031;-75
2021/10/15 02:19:38;;;;;;;8.60;7.00;;;13.60;99.90;;;;;;4915521;29;20127;-73
2021/10/15 02:22:04;;;;;;;9.57;7.10;;;13.60;99.90;;;;;;4915156;29;20032;-76
2021/10/15 02:24:30;;;;;;;9.57;6.75;;;13.60;99.90;;;;;;4914110;29;20080;-74
2021/10/15 02:26:56;;;;;;;9.27;7.47;;;13.60;99.90;;;;;;4915012;29;20552;-76
2021/10/15 02:29:22;;;;;;;8.95;7.88;;;13.60;99.90;;;;;;4916189;29;20032;-75
2021/10/15 02:31:47;;;;;;;8.40;6.88;;;13.50;99.90;;;;;;4919498;29;20020;-72
2021/10/15 02:34:14;;;;;;;9.07;6.45;;;13.60;99.90;;;;;;4917936;29;20032;-73
2021/10/15 02:36:40;;;;;;;8.77;7.70;;;13.60;99.90;;;;;;4919304;29;20039;-73
2021/10/15 02:39:05;;;;;;;10.02;7.80;;;13.60;99.90;;;;;;4919374;29;20036;-73
2021/10/15 02:41:31;;;;;;;8.88;7.00;;;13.50;99.90;;;;;;4918408;29;20032;-75
2021/10/15 02:43:56;;;;;;;8.73;7.32;;;13.50;99.90;;;;;;4918380;29;20045;-78
2021/10/15 02:46:22;;;;;;;7.75;6.95;;;13.50;99.90;;;;;;4919458;29;20036;-77
2021/10/15 02:48:47;;;;;;;13.32;6.97;;;13.50;99.90;;;;;;4937750;29;20031;-77
2021/10/15 02:51:13;;;;;;;9.35;6.88;;;13.60;99.90;;;;;;4919335;29;20032;-75
2021/10/15 02:53:39;;;;;;;9.98;7.57;;;13.50;99.90;;;;;;4933479;29;20072;-76
2021/10/15 02:56:06;;;;;;;8.40;7.38;;;13.50;99.90;;;;;;4918691;29;20362;-77
2021/10/15 02:58:32;;;;;;;8.82;6.97;;;13.50;99.90;;;;;;4917600;29;20076;-76
2021/10/15 03:00:58;;;;;;;8.43;6.47;;;13.50;99.90;;;;;;4917827;29;20052;-76
2021/10/15 03:03:23;;;;;;;11.15;7.90;;;13.50;99.90;;;;;;4945827;29;20052;-76
2021/10/15 03:05:49;;;;;;;10.52;7.88;;;13.50;99.90;;;;;;4918069;29;20060;-75
2021/10/15 03:08:14;;;;;;;8.35;6.95;;;13.50;99.90;;;;;;4917564;29;20024;-76
2021/10/15 03:10:40;;;;;;;9.20;7.22;;;13.40;99.90;;;;;;4918179;29;20040;-76
2021/10/15 03:13:06;;;;;;;8.60;7.22;;;13.50;99.90;;;;;;4933293;29;20056;-76
2021/10/15 03:15:31;;;;;;;9.95;7.95;;;13.40;99.90;;;;;;4932995;29;20536;-75
2021/10/15 03:17:57;;;;;;;9.80;7.40;;;13.50;99.90;;;;;;4918210;29;20095;-74
2021/10/15 03:20:23;;;;;;;8.77;7.13;;;13.50;99.90;;;;;;4917450;29;20036;-76
2021/10/15 03:22:48;;;;;;;10.68;7.78;;;13.50;99.90;;;;;;4918780;29;20040;-74
2021/10/15 03:25:14;;;;;;;10.80;8.45;;;13.40;99.90;;;;;;4918278;29;20060;-73
2021/10/15 03:27:40;;;;;;;9.90;7.55;;;13.50;99.90;;;;;;4918442;29;20092;-74
2021/10/15 03:30:06;;;;;;;12.40;8.00;;;13.50;99.90;;;;;;4918154;29;20361;-73
2021/10/15 03:32:32;;;;;;;10.38;7.55;;;13.40;99.90;;;;;;4918534;29;20028;-72
2021/10/15 03:34:58;;;;;;;9.73;8.30;;;13.40;99.90;;;;;;4917375;29;20039;-74
2021/10/15 03:37:23;;;;;;;11.10;7.20;;;13.40;99.90;;;;;;4916976;29;20100;-73
2021/10/15 03:39:53;;;;;;;9.27;7.55;;;13.40;99.90;;;;;;4931792;29;20115;-73
2021/10/15 03:42:19;;;;;;;11.48;8.48;;;13.40;99.90;;;;;;4917766;29;20181;-73
2021/10/15 03:44:46;;;;;;;10.38;7.80;;;13.40;99.90;;;;;;4915662;29;20036;-72
2021/10/15 03:47:12;;;;;;;10.90;7.55;;;13.40;99.90;;;;;;4917136;29;20020;-74
2021/10/15 03:49:38;;;;;;;9.70;7.53;;;13.40;99.90;;;;;;4916683;29;20032;-73
2021/10/15 03:52:04;;;;;;;12.15;7.95;;;13.30;99.90;;;;;;4938636;29;20059;-72
2021/10/15 03:54:30;;;;;;;10.68;7.72;;;13.40;99.90;;;;;;4917299;29;20047;-73
2021/10/15 03:56:55;;;;;;;8.90;7.60;;;13.30;99.90;;;;;;4917829;29;20529;-73
2021/10/15 03:59:21;;;;;;;11.63;7.22;;;13.40;99.90;;;;;;4928581;29;20486;-73
2021/10/15 04:01:47;;;;;;;9.98;7.45;;;13.40;99.90;;;;;;4917640;29;20099;-73
2021/10/15 04:04:12;;;;;;;9.82;7.30;;;13.40;99.90;;;;;;4917761;29;20040;-73
2021/10/15 04:06:38;;;;;;;9.45;7.35;;;13.40;99.90;;;;;;4917119;29;20020;-73
2021/10/15 04:09:04;;;;;;;10.38;8.05;;;13.40;99.90;;;;;;4915873;29;20123;-72
2021/10/15 04:11:29;;;;;;;10.95;8.02;;;13.50;99.90;;;;;;4916274;29;20469;-72
2021/10/15 04:13:55;;;;;;;10.55;8.02;;;13.40;99.90;;;;;;4931137;29;20087;-73
2021/10/15 04:16:20;;;;;;;10.60;7.88;;;13.40;99.90;;;;;;4916474;29;20024;-75
2021/10/15 04:18:46;;;;;;;7.65;6.65;;;13.40;99.90;;;;;;4933287;29;20043;-75
2021/10/15 04:21:12;;;;;;;7.68;6.93;;;13.40;99.90;;;;;;4931549;29;20047;-73
2021/10/15 04:23:37;;;;;;;11.55;7.90;;;13.40;99.90;;;;;;4915113;29;20020;-75
2021/10/15 04:26:03;;;;;;;8.75;7.78;;;13.40;99.90;;;;;;4915789;29;20032;-74
2021/10/15 04:28:28;;;;;;;9.00;7.45;;;13.40;99.90;;;;;;4916432;29;20028;-77
2021/10/15 04:30:54;;;;;;;12.27;7.53;;;13.30;99.90;;;;;;4917601;29;20433;-75
2021/10/15 04:33:20;;;;;;;9.38;7.47;;;13.30;99.90;;;;;;4931839;29;20023;-74
2021/10/15 04:35:45;;;;;;;8.68;7.03;;;13.40;99.90;;;;;;4915661;29;20036;-74
2021/10/15 04:38:11;;;;;;;9.05;7.60;;;13.40;99.90;;;;;;4917108;29;20410;-75
2021/10/15 04:40:37;;;;;;;9.50;7.35;;;13.30;99.90;;;;;;4916518;29;20044;-74
2021/10/15 04:43:03;;;;;;;11.43;8.35;;;13.40;99.90;;;;;;4917254;29;20029;-77
2021/10/15 04:45:29;;;;;;;11.63;8.38;;;13.40;99.90;;;;;;4917109;29;20036;-77
2021/10/15 04:47:54;;;;;;;13.52;8.50;;;13.30;99.90;;;;;;4916965;29;20035;-75
2021/10/15 04:50:20;;;;;;;8.95;7.72;;;13.30;99.90;;;;;;4915899;29;20032;-74
2021/10/15 04:52:45;;;;;;;13.60;8.70;;;13.30;99.90;;;;;;4914858;29;20048;-75
2021/10/15 04:55:11;;;;;;;13.95;8.27;;;13.30;99.90;;;;;;4915257;29;20373;-73
2021/10/15 04:57:36;;;;;;;11.88;8.00;;;13.40;99.90;;;;;;4915552;29;20024;-74
2021/10/15 05:00:07;;;;;;;14.68;9.07;;;13.30;99.90;;;;;;4916944;29;20074;-74
2021/10/15 05:02:37;;;;;;;9.80;8.73;;;13.40;99.90;;;;;;4915924;29;20035;-74
2021/10/15 05:05:03;;;;;;;13.00;8.20;;;13.40;99.90;;;;;;4915707;29;20051;-74
2021/10/15 05:07:29;;;;;;;11.50;9.68;;;13.40;99.90;;;;;;4916660;29;20515;-76
2021/10/15 05:09:55;;;;;;;13.50;9.65;;;13.40;99.90;;;;;;4916313;29;20111;-76
2021/10/15 05:12:21;;;;;;;12.00;8.23;;;13.30;99.90;;;;;;4916485;29;20083;-74
2021/10/15 05:14:47;;;;;;;9.90;8.75;;;13.40;99.90;;;;;;4916585;29;20492;-73
2021/10/15 05:17:13;;;;;;;9.77;8.60;;;13.40;99.90;;;;;;4915990;29;20027;-72
2021/10/15 05:19:40;;;;;;;10.63;8.70;;;13.30;99.90;;;;;;4915081;29;20361;-73
2021/10/15 05:22:05;;;;;;;10.23;7.82;;;13.30;99.90;;;;;;4916651;29;20056;-73
2021/10/15 05:24:31;;;;;;;11.80;9.18;;;13.30;99.90;;;;;;4915446;29;20109;-74
2021/10/15 05:26:57;;;;;;;12.48;8.88;;;13.30;99.90;;;;;;4916606;29;20035;-73
2021/10/15 05:29:22;;;;;;;16.02;9.85;;;13.30;99.90;;;;;;4916582;29;20028;-73
2021/10/15 05:31:48;;;;;;;11.60;9.10;;;13.40;99.90;;;;;;4915565;29;20027;-74
2021/10/15 05:34:13;;;;;;;13.07;9.82;;;13.30;99.90;;;;;;4916262;29;20036;-73
2021/10/15 05:36:39;;;;;;;16.20;9.63;;;13.30;99.90;;;;;;4929536;29;20083;-73
2021/10/15 05:39:05;;;;;;;11.80;9.48;;;13.30;99.90;;;;;;4931476;29;20115;-73
2021/10/15 05:41:31;;;;;;;13.50;9.50;;;13.30;99.90;;;;;;4915080;29;20100;-74
2021/10/15 05:43:56;;;;;;;10.52;9.05;;;13.30;99.90;;;;;;4914399;29;20392;-72
2021/10/15 05:46:22;;;;;;;12.98;9.77;;;13.30;99.90;;;;;;4914597;29;20042;-72
2021/10/15 05:48:48;;;;;;;19.88;11.13;;;13.30;99.90;;;;;;4915913;29;20107;-73
2021/10/15 05:51:14;;;;;;;11.95;8.80;;;13.30;99.90;;;;;;4913878;29;20032;-74
2021/10/15 05:53:41;;;;;;;13.00;10.20;;;13.30;99.90;;;;;;4916391;29;20084;-75
2021/10/15 05:58:50;;;;;;;16.45;9.75;;;13.30;99.90;;;;;;4914944;29;20060;-72
2021/10/15 06:01:23;;;;;;;10.90;9.57;;;13.30;99.90;;;;;;4914697;29;20400;-72
2021/10/15 06:04:01;;;;;;;9.85;8.77;;;13.30;99.90;;;;;;4915816;29;20056;-72
2021/10/15 06:14:39;;;;;;;11.65;9.68;;;13.30;99.90;;;;;;4915571;29;20175;-73
2021/10/15 06:17:11;;;;;;;11.20;9.23;;;13.40;99.90;;;;;;4916044;29;20102;-72
2021/10/15 06:19:52;;;;;;;11.32;9.27;;;13.40;99.90;;;;;;4914475;29;20635;-73
2021/10/15 06:22:21;;;;;;;14.65;9.65;;;13.40;99.90;;;;;;4904762;29;20021;-74
2021/10/15 06:24:49;;;;;;;11.90;10.48;;;13.40;99.90;;;;;;4926160;29;20067;-73
2021/10/15 06:27:16;;;;;;;13.65;9.80;;;13.40;99.90;;;;;;4914342;29;20028;-74
2021/10/15 06:29:42;;;;;;;11.18;8.57;;;13.40;99.90;;;;;;4914929;29;20024;-74
2021/10/15 06:32:08;;;;;;;11.77;9.65;;;13.40;99.90;;;;;;4933272;29;20043;-75
2021/10/15 06:34:34;;;;;;;13.10;9.15;;;13.50;99.90;;;;;;4921295;29;20036;-74
2021/10/15 06:36:59;;;;;;;12.90;9.48;;;13.50;99.90;;;;;;4913421;29;20381;-74
2021/10/15 06:39:25;;;;;;;12.15;9.80;;;13.50;99.90;;;;;;4914588;29;20523;-72
2021/10/15 06:41:51;;;;;;;14.63;10.63;;;13.50;99.90;;;;;;4913635;29;20058;-74
2021/10/15 06:44:17;;;;;;;14.70;10.73;;;13.40;99.90;;;;;;4947356;29;20063;-75
2021/10/15 06:46:42;;;;;;;16.00;10.80;;;13.50;99.90;;;;;;4915994;29;20024;-75
2021/10/15 06:49:09;;;;;;;14.75;10.52;;;13.40;99.90;;;;;;4914404;29;20025;-73
2021/10/15 06:51:35;;;;;;;12.75;11.25;;;13.30;99.90;;;;;;4913811;29;20048;-73
2021/10/15 06:54:01;;;;;;;12.07;10.40;;;13.30;99.90;;;;;;4913850;29;20036;-73
2021/10/15 06:56:27;;;;;;;11.30;9.93;;;13.30;99.90;;;;;;4914791;29;20035;-73
2021/10/15 06:58:53;;;;;;;11.65;10.43;;;13.30;99.90;;;;;;4930110;29;20469;-73
2021/10/15 07:01:18;;;;;;;12.07;10.30;;;13.30;99.90;;;;;;4912322;29;20040;-73
2021/10/15 07:03:44;;;;;;;20.08;11.65;;;13.20;99.90;;;;;;4914728;29;20080;-73
2021/10/15 07:06:09;;;;;;;13.60;8.90;;;13.20;99.90;;;;;;4915382;29;20047;-73
2021/10/15 07:08:35;;;;;;;7.82;5.57;;;13.10;99.90;;;;;;4914212;29;20032;-74
2021/10/15 07:11:00;;;;;;;5.55;4.57;;;12.90;99.90;;;;;;4913325;29;20016;-78
2021/10/15 07:13:26;;;;;;;5.55;4.80;;;12.70;99.90;;;;;;4913208;29;20509;-75
2021/10/15 07:15:52;;;;;;;4.20;3.80;;;12.60;99.90;;;;;;4915143;29;20169;-78
2021/10/15 07:18:17;;;;;;;4.30;3.88;;;12.60;99.90;;;;;;4917729;29;20035;-76
2021/10/15 07:20:43;;;;;;;3.17;2.88;;;12.50;99.90;;;;;;4934071;29;20031;-79
2021/10/15 07:23:13;;;;;;;2.92;2.72;;;12.40;99.90;;;;;;4937060;29;20028;-77
2021/10/15 07:25:39;;;;;;;2.95;2.15;;;12.40;99.90;;;;;;4935772;29;20050;-82
2021/10/15 07:28:06;;;;;;;2.10;1.63;;;12.40;99.90;;;;;;4919234;29;20037;-81
2021/10/15 07:30:34;;;;;;;0.73;0.70;;;12.30;99.90;;;;;;4916490;29;20060;-83
2021/10/15 07:33:00;;;;;;;0.93;0.80;;;12.30;99.90;;;;;;4917261;29;20028;-79
2021/10/15 07:35:26;;;;;;;1.00;0.90;;;12.10;99.90;;;;;;4918662;29;20039;-79
2021/10/15 07:37:51;;;;;;;0.75;0.65;;;12.10;99.90;;;;;;4916729;29;20472;-80
2021/10/15 07:40:23;;;;;;;0.82;0.60;;;11.90;99.90;;;;;;4916956;29;20032;-80
2021/10/15 07:42:49;;;;;;;1.60;0.90;;;11.90;99.90;;;;;;4917035;29;20242;-79
2021/10/15 07:45:14;;;;;;;2.10;0.80;;;11.80;99.90;;;;;;4916679;29;20540;-77
2021/10/15 07:47:40;;;;;;;2.30;0.70;;;11.80;99.90;;;;;;4916976;29;20409;-80
2021/10/15 07:50:06;;;;;;;2.58;1.23;;;11.70;99.90;;;;;;4918338;29;20020;-79
2021/10/15 07:52:32;;;;;;;1.55;0.80;;;11.70;99.90;;;;;;4917297;29;20488;-79
2021/10/15 07:54:58;;;;;;;3.20;1.20;;;11.70;99.90;;;;;;4918091;29;20027;-78
2021/10/15 07:57:23;;;;;;;1.48;0.82;;;11.70;99.90;;;;;;4917337;29;20024;-75
2021/10/15 07:59:49;;;;;;;1.42;0.80;;;11.70;99.90;;;;;;4918114;29;20044;-78
2021/10/15 08:02:15;;;;;;;2.63;1.13;;;11.70;99.90;;;;;;4916964;29;20024;-80
2021/10/15 08:04:41;;;;;;;1.42;0.88;;;11.80;99.90;;;;;;4917246;29;20139;-76
2021/10/15 08:07:07;;;;;;;1.92;0.80;;;11.80;99.90;;;;;;4918041;29;20044;-76
2021/10/15 08:09:33;;;;;;;2.55;1.05;;;11.90;99.90;;;;;;4916535;29;20107;-82
2021/10/15 08:11:59;;;;;;;3.22;1.00;;;11.90;99.90;;;;;;4916587;29;20059;-82
2021/10/15 08:14:24;;;;;;;3.22;1.02;;;11.90;99.90;;;;;;4916590;29;20028;-76
2021/10/15 08:16:51;;;;;;;2.20;0.90;;;11.90;99.90;;;;;;4918168;29;20108;-75
2021/10/15 08:19:16;;;;;;;1.15;0.75;;;11.90;99.90;;;;;;4915727;29;20460;-76
2021/10/15 08:21:42;;;;;;;4.65;1.45;;;11.90;99.90;;;;;;4916273;29;20119;-75
2021/10/15 08:24:09;;;;;;;3.58;0.98;;;12.00;99.90;;;;;;4916265;29;20028;-77
2021/10/15 08:26:35;;;;;;;1.25;0.77;;;12.00;99.90;;;;;;4915002;29;20017;-77
2021/10/15 08:29:00;;;;;;;3.15;1.10;;;12.10;99.90;;;;;;4915825;29;20020;-75
2021/10/15 08:31:27;;;;;;;1.02;0.80;;;12.10;99.90;;;;;;4917417;29;20028;-77
2021/10/15 08:33:53;;;;;;;1.80;1.00;;;12.10;99.90;;;;;;4931723;29;20391;-84
2021/10/15 08:36:19;;;;;;;3.78;1.33;;;12.00;99.90;;;;;;4917568;29;20020;-83
2021/10/15 08:38:44;;;;;;;1.90;1.00;;;12.00;99.90;;;;;;4916029;29;20083;-81
2021/10/15 08:41:11;;;;;;;2.58;1.33;;;12.00;99.90;;;;;;4915329;29;20032;-81
2021/10/15 08:43:40;;;;;;;2.08;0.98;;;12.10;99.90;;;;;;4917108;29;20028;-82
2021/10/15 08:46:08;;;;;;;1.67;0.95;;;12.00;99.90;;;;;;4916058;29;20028;-85
2021/10/15 08:48:39;;;;;;;0.95;0.85;;;12.10;99.90;;;;;;4915079;29;20119;-83
2021/10/15 08:51:06;;;;;;;2.75;1.35;;;12.10;99.90;;;;;;4917587;29;20028;-82
2021/10/15 08:53:44;;;;;;;2.95;1.10;;;12.20;99.90;;;;;;4915315;29;20024;-83
2021/10/15 08:56:10;;;;;;;2.85;1.10;;;12.30;99.90;;;;;;4916174;29;20032;-84
2021/10/15 08:58:45;;;;;;;1.90;1.15;;;12.30;99.90;;;;;;4916871;29;20156;-82
2021/10/15 09:01:11;;;;;;;2.28;1.20;;;12.40;99.90;;;;;;4915390;29;20123;-77
2021/10/15 09:03:37;;;;;;;3.10;1.30;;;12.40;99.90;;;;;;4916640;29;20103;-77
2021/10/15 09:06:07;;;;;;;5.93;1.70;;;12.40;99.90;;;;;;4916924;29;20492;-80
2021/10/15 09:08:53;;;;;;;2.65;1.30;;;12.40;99.90;;;;;;4914599;29;20024;-80
2021/10/15 09:11:41;;;;;;;4.90;1.58;;;12.40;99.90;;;;;;4916758;29;20492;-81
2021/10/15 09:14:10;;;;;;;5.50;1.58;;;12.40;99.90;;;;;;4916741;29;20039;-82
2021/10/15 09:17:08;;;;;;;2.35;1.10;;;12.40;99.90;;;;;;4915764;29;20028;-83
2021/10/15 09:19:42;;;;;;;4.10;1.85;;;12.40;99.90;;;;;;4915103;29;20484;-83
2021/10/15 09:22:22;;;;;;;3.65;1.40;;;12.30;99.90;;;;;;4914979;29;20434;-83
2021/10/15 09:24:54;;;;;;;4.05;1.48;;;12.20;99.90;;;;;;4915211;29;20024;-83
2021/10/15 09:27:42;;;;;;;4.68;1.60;;;12.10;99.90;;;;;;4916486;29;20024;-81
2021/10/15 09:30:13;;;;;;;2.75;1.10;;;12.20;99.90;;;;;;4914833;29;20115;-80
2021/10/15 09:32:47;;;;;;;3.55;1.45;;;12.20;99.90;;;;;;4916374;29;20036;-80
2021/10/15 09:35:17;;;;;;;5.43;1.40;;;12.10;99.90;;;;;;4916551;29;20484;-83
2021/10/15 09:37:44;;;;;;;5.18;1.40;;;12.00;99.90;;;;;;4914149;29;20067;-81
2021/10/15 09:40:14;;;;;;;2.38;1.40;;;12.00;99.90;;;;;;4914760;29;20107;-83
2021/10/15 09:42:45;;;;;;;3.78;1.58;;;12.00;99.90;;;;;;4914822;29;20496;-82
2021/10/15 09:45:16;;;;;;;3.95;2.03;;;12.00;99.90;;;;;;4915666;29;20032;-82
2021/10/15 09:47:43;;;;;;;7.22;2.40;;;12.00;99.90;;;;;;4916260;29;20084;-83
2021/10/15 09:50:09;;;;;;;4.70;2.00;;;12.00;99.90;;;;;;4915520;29;20032;-85
2021/10/15 09:52:46;;;;;;;6.72;1.98;;;12.00;99.90;;;;;;4914542;29;20020;-85
2021/10/15 09:55:19;;;;;;;5.90;2.20;;;12.00;99.90;;;;;;4915341;29;20028;-81
2021/10/15 09:57:49;;;;;;;7.88;2.08;;;12.00;99.90;;;;;;4914172;29;20135;-84
2021/10/15 10:00:17;;;;;;;3.78;1.60;;;12.00;99.90;;;;;;4916220;29;20067;-84
2021/10/15 10:02:44;;;;;;;2.63;1.52;;;12.20;99.90;;;;;;4930602;29;20035;-83
2021/10/15 10:05:13;;;;;;;5.72;1.90;;;12.30;99.90;;;;;;4914174;29;20087;-85
2021/10/15 10:07:40;;;;;;;6.10;2.00;;;12.50;99.90;;;;;;4914852;29;20016;-85
2021/10/15 10:10:08;;;;;;;6.78;2.42;;;12.50;99.90;;;;;;4916318;29;20032;-79
2021/10/15 10:12:36;;;;;;;6.47;2.38;;;12.50;99.90;;;;;;4913424;29;20107;-78
2021/10/15 10:15:04;;;;;;;5.80;2.03;;;12.60;99.90;;;;;;4914595;29;20035;-77
2021/10/15 10:17:35;;;;;;;3.92;1.60;;;12.70;99.90;;;;;;4914287;29;20493;-80
2021/10/15 10:20:06;;;;;;;3.28;1.40;;;12.80;99.90;;;;;;4914232;29;20115;-76
2021/10/15 10:22:32;;;;;;;5.03;1.73;;;12.90;99.90;;;;;;4914224;29;20033;-74
2021/10/15 10:25:00;;;;;;;6.43;1.70;;;12.90;99.90;;;;;;4914798;29;20120;-75
2021/10/15 10:27:32;;;;;;;4.53;1.95;;;12.90;99.90;;;;;;4913461;29;20024;-79
2021/10/15 10:29:59;;;;;;;5.82;2.05;;;12.80;99.90;;;;;;4914467;29;20028;-76
2021/10/15 10:32:27;;;;;;;6.07;2.10;;;12.70;99.90;;;;;;4913366;29;20379;-76
2021/10/15 10:34:53;;;;;;;3.53;1.73;;;12.60;99.90;;;;;;4916186;29;20473;-75
2021/10/15 10:37:20;;;;;;;5.50;1.83;;;12.60;99.90;;;;;;4915824;29;20033;-76
2021/10/15 10:39:46;;;;;;;5.70;1.85;;;12.60;99.90;;;;;;4914985;29;20114;-80
2021/10/15 10:42:18;;;;;;;6.13;1.90;;;12.50;99.90;;;;;;4915755;29;20039;-86
2021/10/15 10:44:49;;;;;;;3.63;1.77;;;12.50;99.90;;;;;;4915378;29;20384;-79
2021/10/15 10:47:18;;;;;;;7.78;2.55;;;12.40;99.90;;;;;;4914965;29;20112;-83
2021/10/15 10:50:03;;;;;;;8.18;1.63;;;12.40;99.90;;;;;;4915475;29;20389;-83
2021/10/15 10:52:29;;;;;;;6.35;1.90;;;12.30;99.90;;;;;;4919127;29;20035;-80
2021/10/15 10:54:55;;;;;;;5.35;1.77;;;12.30;99.90;;;;;;4919448;29;20024;-86
2021/10/15 10:57:24;;;;;;;6.88;2.15;;;12.30;99.90;;;;;;4920036;29;20033;-79
2021/10/15 10:59:51;;;;;;;7.75;1.88;;;12.50;99.90;;;;;;4919761;29;20155;-78
2021/10/15 11:02:20;;;;;;;6.97;1.80;;;12.60;99.90;;;;;;4918428;29;20535;-80
2021/10/15 11:04:51;;;;;;;6.00;1.52;;;12.70;99.90;;;;;;4918616;29;20473;-85
2021/10/15 11:07:16;;;;;;;10.90;2.47;;;12.70;99.90;;;;;;4918269;29;20393;-79
2021/10/15 11:09:53;;;;;;;7.90;1.90;;;12.60;99.90;;;;;;4918581;29;20036;-92
2021/10/15 11:12:28;;;;;;;6.90;1.85;;;12.60;99.90;;;;;;4919744;29;20169;-94
2021/10/15 11:14:56;;;;;;;7.90;2.05;;;12.40;99.90;;;;;;4919209;29;20029;-77
2021/10/15 11:17:33;;;;;;;6.93;3.08;;;12.40;99.90;;;;;;4919055;29;20425;-83
2021/10/15 11:20:18;;;;;;;10.02;2.75;;;12.30;99.90;;;;;;4916824;29;20063;-82
2021/10/15 11:23:13;;;;;;;11.52;4.50;;;12.30;99.90;;;;;;4917732;29;20072;-83
2021/10/15 11:25:41;;;;;;;8.00;2.17;;;12.30;99.90;;;;;;4913156;29;20520;-81
2021/10/15 11:28:10;;;;;;;8.73;2.85;;;12.30;99.90;;;;;;4917802;29;20479;-81
2021/10/15 11:30:38;;;;;;;6.30;1.63;;;12.30;99.90;;;;;;4914554;29;20524;-82
2021/10/15 11:33:07;;;;;;;9.48;2.20;;;12.50;99.90;;;;;;4916714;29;20028;-85
2021/10/15 11:35:36;;;;;;;3.30;1.23;;;12.70;99.90;;;;;;4915221;29;20351;-84
2021/10/15 11:38:09;;;;;;;4.47;1.55;;;12.80;99.90;;;;;;4918614;29;20111;-89
2021/10/15 11:40:43;;;;;;;6.95;1.77;;;12.80;99.90;;;;;;4918572;29;20032;-82
2021/10/15 11:43:22;;;;;;;9.30;2.45;;;12.80;99.90;;;;;;4918820;29;20032;-82
2021/10/15 11:45:55;;;;;;;7.95;2.47;;;12.70;99.90;;;;;;4918572;29;20020;-81
2021/10/15 11:48:40;;;;;;;5.63;2.00;;;12.50;99.90;;;;;;4917418;29;20499;-80
2021/10/15 11:51:10;;;;;;;8.10;2.13;;;12.30;99.90;;;;;;4916964;29;20123;-81
2021/10/15 11:53:41;;;;;;;4.82;1.77;;;12.20;99.90;;;;;;4916749;29;20040;-79
2021/10/15 11:56:09;;;;;;;;;;;12.10;99.90;;;;;;4917304;29;20479;-83
2021/10/15 11:58:43;;;;;;;5.88;1.70;;;12.10;99.90;;;;;;4931790;29;19943;-83
2021/10/15 12:01:09;;;;;;;8.95;1.73;;;12.10;99.90;;;;;;4916584;29;20036;-82
2021/10/15 12:03:40;;;;;;;5.45;1.73;;;12.00;99.90;;;;;;4931857;29;20024;-79
2021/10/15 12:06:11;;;;;;;5.68;1.67;;;12.10;99.90;;;;;;4918222;29;20421;-84
2021/10/15 12:08:38;;;;;;;5.57;1.73;;;12.10;99.90;;;;;;4916421;29;20128;-82
2021/10/15 12:11:05;;;;;;;4.75;1.65;;;12.20;99.90;;;;;;4916035;29;20028;-79
2021/10/15 12:13:31;;;;;;;6.07;1.60;;;12.20;99.90;;;;;;4916434;29;20045;-80
2021/10/15 12:15:56;;;;;;;5.28;1.63;;;12.30;99.90;;;;;;4932512;29;20040;-79
2021/10/15 12:18:30;;;;;;;11.10;3.63;;;12.50;99.90;;;;;;4917492;29;20091;-78
2021/10/15 12:21:12;;;;;;;10.55;2.10;;;12.70;99.90;;;;;;4917879;29;20115;-79
2021/10/15 12:23:51;;;;;;;11.70;3.40;;;12.90;99.90;;;;;;4916009;29;20047;-77
2021/10/15 12:26:22;;;;;;;6.93;2.30;;;12.90;99.90;;;;;;4915886;29;20032;-77
2021/10/15 12:28:48;;;;;;;8.75;2.25;;;13.00;99.90;;;;;;4916263;29;20114;-78
2021/10/15 12:31:42;;;;;;;9.00;2.60;;;13.00;99.90;;;;;;4917604;29;20777;-76
2021/10/15 12:34:15;;;;;;;8.10;2.08;;;12.90;99.90;;;;;;4911872;29;20052;-77
2021/10/15 12:36:42;;;;;;;10.38;2.55;;;12.90;99.90;;;;;;4916068;29;20023;-77
2021/10/15 12:39:21;;;;;;;11.75;2.78;;;12.80;99.90;;;;;;4915457;29;20389;-76
2021/10/15 12:41:48;;;;;;;8.05;2.55;;;12.70;99.90;;;;;;4916074;29;20438;-82
2021/10/15 12:44:22;;;;;;;13.93;3.35;;;12.70;99.90;;;;;;4916075;29;20561;-82
2021/10/15 12:47:07;;;;;;;10.40;2.40;;;12.60;99.90;;;;;;4915138;29;20080;-77
2021/10/15 12:50:00;;;;;;;10.13;3.28;;;12.50;99.90;;;;;;4915716;29;20111;-76
2021/10/15 12:52:35;;;;;;;10.68;3.13;;;12.40;99.90;;;;;;4916728;29;20453;-77
2021/10/15 12:55:12;;;;;;;11.38;3.17;;;12.30;99.90;;;;;;4916477;29;20036;-81
2021/10/15 12:57:38;;;;;;;13.55;2.95;;;12.30;99.90;;;;;;4915667;29;20028;-82